Time;durP1;ratioP1;P1;durP2;ratioP2;P2;SDS_P1;SDS_P2;PMS_P1;PMS_P2;Temp;Humidity;BMP_temperature;BMP_pressure;BME280_temperature;BME280_humidity;BME280_pressure;Samples;Min_cycle;Max_cycle;Signal;HPM_P1;HPM_P2
2022/05/05 00:00:06;;;;;;;6.82;2.72;;;;;;;;;;5043774;28;20041;-60
2022/05/05 00:02:35;;;;;;;11.00;2.70;;;;;;;;;;5045036;28;20120;-60
2022/05/05 00:05:02;;;;;;;8.93;3.03;;;;;;;;;;5046224;28;20061;-60
2022/05/05 00:07:28;;;;;;;8.15;3.38;;;;;;;;;;5009814;28;20053;-60
2022/05/05 00:09:57;;;;;;;7.93;3.60;;;;;;;;;;5044212;28;20061;-60
2022/05/05 00:15:08;;;;;;;6.32;2.95;;;;;;;;;;5047448;28;20076;-60
2022/05/05 00:17:36;;;;;;;7.47;3.28;;;;;;;;;;5033701;28;20126;-60
2022/05/05 00:20:04;;;;;;;7.15;2.78;;;;;;;;;;5030163;28;20064;-60
2022/05/05 00:22:30;;;;;;;5.45;2.83;;;;;;;;;;5024387;28;20064;-60
2022/05/05 00:24:57;;;;;;;5.43;2.83;;;;;;;;;;5023023;28;20057;-60
2022/05/05 00:27:23;;;;;;;6.90;2.88;;;;;;;;;;5024176;28;20049;-59
2022/05/05 00:29:51;;;;;;;8.02;3.35;;;;;;;;;;5030436;28;20060;-61
2022/05/05 00:32:17;;;;;;;7.88;2.88;;;;;;;;;;5015635;28;20056;-60
2022/05/05 00:34:45;;;;;;;7.97;3.53;;;;;;;;;;5035449;28;20092;-60
2022/05/05 00:37:12;;;;;;;7.72;3.08;;;;;;;;;;5012984;28;20064;-60
2022/05/05 00:39:39;;;;;;;6.60;3.00;;;;;;;;;;5035782;28;20107;-60
2022/05/05 00:42:10;;;;;;;8.73;3.33;;;;;;;;;;5038150;28;20046;-60
2022/05/05 00:44:37;;;;;;;8.20;3.00;;;;;;;;;;5029204;28;20137;-60
2022/05/05 00:47:04;;;;;;;6.90;2.95;;;;;;;;;;5023521;28;20049;-60
2022/05/05 00:49:31;;;;;;;8.75;3.30;;;;;;;;;;5028536;28;20057;-60
2022/05/05 00:51:59;;;;;;;8.13;3.28;;;;;;;;;;5046358;28;20045;-60
2022/05/05 00:54:26;;;;;;;7.53;2.90;;;;;;;;;;5003199;28;20104;-60
2022/05/05 00:56:53;;;;;;;8.00;3.33;;;;;;;;;;5037163;28;20049;-60
2022/05/05 00:59:19;;;;;;;10.32;3.85;;;;;;;;;;5038698;28;20080;-60
2022/05/05 01:01:49;;;;;;;8.93;3.03;;;;;;;;;;5029978;28;20049;-60
2022/05/05 01:04:16;;;;;;;6.65;2.90;;;;;;;;;;5034474;28;20135;-60
2022/05/05 01:06:43;;;;;;;10.05;3.67;;;;;;;;;;5046039;28;20107;-60
2022/05/05 01:09:11;;;;;;;9.02;3.40;;;;;;;;;;5022049;28;20053;-61
2022/05/05 01:11:38;;;;;;;8.18;3.70;;;;;;;;;;5030029;28;20061;-60
2022/05/05 01:14:04;;;;;;;8.55;3.50;;;;;;;;;;5023301;28;20053;-61
2022/05/05 01:16:31;;;;;;;6.85;2.85;;;;;;;;;;5045184;28;20061;-61
2022/05/05 01:18:58;;;;;;;6.85;2.95;;;;;;;;;;5018463;28;20050;-61
2022/05/05 01:21:26;;;;;;;7.57;3.13;;;;;;;;;;5045395;28;20041;-61
2022/05/05 01:23:52;;;;;;;8.40;3.25;;;;;;;;;;5038894;28;20052;-60
2022/05/05 01:29:05;;;;;;;10.52;3.65;;;;;;;;;;5039381;28;20060;-59
2022/05/05 01:31:32;;;;;;;6.63;2.95;;;;;;;;;;5044787;28;20050;-60
2022/05/05 01:33:58;;;;;;;9.27;3.38;;;;;;;;;;5039791;28;20046;-60
2022/05/05 01:36:26;;;;;;;8.63;3.22;;;;;;;;;;5028315;28;20160;-60
2022/05/05 01:38:53;;;;;;;9.10;3.70;;;;;;;;;;5042071;28;20045;-60
2022/05/05 01:41:21;;;;;;;9.90;3.38;;;;;;;;;;5025014;28;20058;-60
2022/05/05 01:43:48;;;;;;;9.83;3.13;;;;;;;;;;5062420;28;20049;-60
2022/05/05 01:46:15;;;;;;;12.25;3.75;;;;;;;;;;5021878;28;20315;-59
2022/05/05 01:48:41;;;;;;;8.27;3.30;;;;;;;;;;5030519;28;20129;-58
2022/05/05 01:51:08;;;;;;;9.32;3.33;;;;;;;;;;5022517;28;20049;-58
2022/05/05 01:53:37;;;;;;;9.73;3.75;;;;;;;;;;5028786;28;20042;-58
2022/05/05 01:56:05;;;;;;;7.93;3.15;;;;;;;;;;5027141;28;20050;-58
2022/05/05 01:58:32;;;;;;;8.13;3.33;;;;;;;;;;5028333;28;20072;-58
2022/05/05 02:00:59;;;;;;;6.15;3.28;;;;;;;;;;5016608;28;20046;-58
2022/05/05 02:03:25;;;;;;;7.72;3.30;;;;;;;;;;5024519;28;20100;-58
2022/05/05 02:05:52;;;;;;;11.00;3.22;;;;;;;;;;5018559;28;20061;-60
2022/05/05 02:08:18;;;;;;;13.95;3.47;;;;;;;;;;5024335;28;20073;-58
2022/05/05 02:10:46;;;;;;;8.75;3.65;;;;;;;;;;5021218;28;20118;-59
2022/05/05 02:13:13;;;;;;;7.00;3.13;;;;;;;;;;5027641;28;20103;-59
2022/05/05 02:15:40;;;;;;;8.55;3.22;;;;;;;;;;5018887;28;20058;-59
2022/05/05 02:18:08;;;;;;;6.75;3.25;;;;;;;;;;5024182;28;20068;-58
2022/05/05 02:20:35;;;;;;;8.52;3.15;;;;;;;;;;5020348;28;20057;-58
2022/05/05 02:23:01;;;;;;;7.45;3.35;;;;;;;;;;5028451;28;20064;-59
2022/05/05 02:25:28;;;;;;;8.07;3.70;;;;;;;;;;5046298;28;20064;-59
2022/05/05 02:27:56;;;;;;;8.82;3.42;;;;;;;;;;5038273;28;20063;-59
2022/05/05 02:30:24;;;;;;;6.97;3.20;;;;;;;;;;5022857;28;20049;-59
2022/05/05 02:32:50;;;;;;;6.68;3.20;;;;;;;;;;5033367;28;20061;-59
2022/05/05 02:35:18;;;;;;;6.78;3.13;;;;;;;;;;5026532;28;20080;-60
2022/05/05 02:40:28;;;;;;;9.00;3.35;;;;;;;;;;5033101;28;20053;-59
2022/05/05 02:42:57;;;;;;;7.97;3.63;;;;;;;;;;5024679;28;20046;-60
2022/05/05 02:45:24;;;;;;;7.57;2.92;;;;;;;;;;5017437;28;20049;-59
2022/05/05 02:47:50;;;;;;;12.10;3.25;;;;;;;;;;5038024;28;20041;-59
2022/05/05 02:50:18;;;;;;;7.88;3.40;;;;;;;;;;5024048;28;20060;-60
2022/05/05 02:52:45;;;;;;;9.63;3.78;;;;;;;;;;5025731;28;20047;-59
2022/05/05 02:55:10;;;;;;;9.52;3.92;;;;;;;;;;5043595;28;20049;-59
2022/05/05 02:57:37;;;;;;;9.43;3.40;;;;;;;;;;5032128;28;20052;-59
2022/05/05 03:00:07;;;;;;;9.05;3.35;;;;;;;;;;5038747;28;20054;-60
2022/05/05 03:02:34;;;;;;;8.95;3.63;;;;;;;;;;5023772;28;20050;-58
2022/05/05 03:05:00;;;;;;;8.48;2.85;;;;;;;;;;4998534;28;20058;-58
2022/05/05 03:07:27;;;;;;;10.05;3.83;;;;;;;;;;5029318;28;20053;-59
2022/05/05 03:09:53;;;;;;;8.43;3.80;;;;;;;;;;5020473;28;20073;-59
2022/05/05 03:12:20;;;;;;;7.60;3.50;;;;;;;;;;5044506;28;20056;-59
2022/05/05 03:14:47;;;;;;;8.95;3.33;;;;;;;;;;5004002;28;20077;-59
2022/05/05 03:17:15;;;;;;;10.48;3.75;;;;;;;;;;5006667;28;20046;-59
2022/05/05 03:19:41;;;;;;;8.48;3.60;;;;;;;;;;5002668;28;20058;-59
2022/05/05 03:22:09;;;;;;;9.73;3.63;;;;;;;;;;5025825;28;20054;-59
2022/05/05 03:24:36;;;;;;;10.48;3.80;;;;;;;;;;5017987;28;20054;-59
2022/05/05 03:27:04;;;;;;;10.95;3.92;;;;;;;;;;5038557;28;20050;-59
2022/05/05 03:29:31;;;;;;;7.60;3.40;;;;;;;;;;5025335;28;20058;-59
2022/05/05 03:31:57;;;;;;;11.88;3.40;;;;;;;;;;5006905;28;20057;-60
2022/05/05 03:34:25;;;;;;;11.10;3.70;;;;;;;;;;5038602;28;20054;-59
2022/05/05 03:36:52;;;;;;;8.05;3.28;;;;;;;;;;5034376;28;20056;-59
2022/05/05 03:39:19;;;;;;;7.95;3.22;;;;;;;;;;5037859;28;20156;-59
2022/05/05 03:41:45;;;;;;;9.05;3.40;;;;;;;;;;5027493;28;20057;-59
2022/05/05 03:44:12;;;;;;;10.02;3.38;;;;;;;;;;5017140;28;20046;-59
2022/05/05 03:46:39;;;;;;;7.78;3.17;;;;;;;;;;4991325;28;20054;-59
2022/05/05 03:49:05;;;;;;;6.90;3.25;;;;;;;;;;4999439;28;20078;-59
2022/05/05 03:51:33;;;;;;;10.45;3.55;;;;;;;;;;5006922;28;20049;-59
2022/05/05 03:54:00;;;;;;;14.57;3.55;;;;;;;;;;5023509;28;20157;-58
2022/05/05 03:56:27;;;;;;;6.63;3.15;;;;;;;;;;5035466;28;20061;-58
2022/05/05 03:58:53;;;;;;;7.70;3.50;;;;;;;;;;5025867;28;20054;-58
2022/05/05 04:01:20;;;;;;;6.75;3.28;;;;;;;;;;4997193;28;20042;-58
2022/05/05 04:03:47;;;;;;;8.02;3.35;;;;;;;;;;5041365;28;20045;-58
2022/05/05 04:06:16;;;;;;;8.35;3.20;;;;;;;;;;5026396;28;20085;-59
2022/05/05 04:08:44;;;;;;;8.95;2.92;;;;;;;;;;5024828;28;20053;-58
2022/05/05 04:11:10;;;;;;;8.05;3.17;;;;;;;;;;5035333;28;20060;-58
2022/05/05 04:13:37;;;;;;;7.82;3.50;;;;;;;;;;5042991;28;20049;-58
2022/05/05 04:16:04;;;;;;;6.63;3.05;;;;;;;;;;5035662;28;20063;-58
2022/05/05 04:18:30;;;;;;;7.72;3.53;;;;;;;;;;5044390;28;20045;-58
2022/05/05 04:20:58;;;;;;;14.52;3.38;;;;;;;;;;5023948;28;20129;-59
2022/05/05 04:23:24;;;;;;;8.63;2.88;;;;;;;;;;4986829;28;20146;-58
2022/05/05 04:25:53;;;;;;;8.07;2.75;;;;;;;;;;4985607;28;20116;-60
2022/05/05 04:28:20;;;;;;;7.75;2.95;;;;;;;;;;5025722;28;20042;-58
2022/05/05 04:30:46;;;;;;;5.97;2.63;;;;;;;;;;5017161;28;20045;-58
2022/05/05 04:33:13;;;;;;;6.95;3.00;;;;;;;;;;5026584;28;20054;-58
2022/05/05 04:35:40;;;;;;;5.60;2.67;;;;;;;;;;5010429;28;20081;-59
2022/05/05 04:38:07;;;;;;;7.00;3.15;;;;;;;;;;5024256;28;20141;-58
2022/05/05 04:40:35;;;;;;;6.88;2.90;;;;;;;;;;5046929;28;20068;-59
2022/05/05 04:43:03;;;;;;;5.72;2.50;;;;;;;;;;5014470;28;20119;-58
2022/05/05 04:45:30;;;;;;;6.88;3.13;;;;;;;;;;5047103;28;20103;-58
2022/05/05 04:47:57;;;;;;;7.65;2.83;;;;;;;;;;5011358;28;20071;-58
2022/05/05 04:50:24;;;;;;;6.85;2.58;;;;;;;;;;5028684;28;20053;-58
2022/05/05 04:52:50;;;;;;;5.72;2.45;;;;;;;;;;5023216;28;20053;-59
2022/05/05 04:55:20;;;;;;;6.00;2.75;;;;;;;;;;5028201;28;20058;-59
2022/05/05 04:57:47;;;;;;;7.38;2.95;;;;;;;;;;5014398;28;20079;-59
2022/05/05 05:00:15;;;;;;;9.60;3.00;;;;;;;;;;5029637;28;20139;-59
2022/05/05 05:02:42;;;;;;;18.95;3.65;;;;;;;;;;5037813;28;20065;-59
2022/05/05 05:05:09;;;;;;;18.13;3.67;;;;;;;;;;5016778;28;20132;-59
2022/05/05 05:07:36;;;;;;;12.85;3.22;;;;;;;;;;5038081;28;20103;-59
2022/05/05 05:10:04;;;;;;;8.73;3.08;;;;;;;;;;5041380;28;20053;-58
2022/05/05 05:12:30;;;;;;;13.00;3.00;;;;;;;;;;5054268;28;20053;-58
2022/05/05 05:14:57;;;;;;;11.98;3.85;;;;;;;;;;5044552;28;20072;-59
2022/05/05 05:17:25;;;;;;;10.63;3.40;;;;;;;;;;5036030;28;20066;-59
2022/05/05 05:19:51;;;;;;;10.03;3.13;;;;;;;;;;5031562;28;20052;-58
2022/05/05 05:22:18;;;;;;;9.18;3.05;;;;;;;;;;5041680;28;20430;-58
2022/05/05 05:24:45;;;;;;;8.95;3.35;;;;;;;;;;5027383;28;20060;-56
2022/05/05 05:27:11;;;;;;;7.88;3.20;;;;;;;;;;5030110;28;20136;-58
2022/05/05 05:29:38;;;;;;;12.02;3.03;;;;;;;;;;5027466;28;20053;-58
2022/05/05 05:32:06;;;;;;;9.38;3.38;;;;;;;;;;5044966;28;20111;-58
2022/05/05 05:34:37;;;;;;;10.23;3.60;;;;;;;;;;5038134;28;20053;-58
2022/05/05 05:37:04;;;;;;;9.55;3.55;;;;;;;;;;5044585;28;20050;-56
2022/05/05 05:39:31;;;;;;;8.60;3.83;;;;;;;;;;5026489;28;20053;-59
2022/05/05 05:41:58;;;;;;;14.77;3.33;;;;;;;;;;5025511;28;20049;-58
2022/05/05 05:44:24;;;;;;;10.68;3.30;;;;;;;;;;5039032;28;20054;-58
2022/05/05 05:46:51;;;;;;;11.77;3.53;;;;;;;;;;5036375;28;20053;-58
2022/05/05 05:49:18;;;;;;;12.07;3.42;;;;;;;;;;5005193;28;20055;-57
2022/05/05 05:51:46;;;;;;;9.77;4.47;;;;;;;;;;5002920;28;20132;-57
2022/05/05 05:54:12;;;;;;;9.73;4.10;;;;;;;;;;5023531;28;20049;-58
2022/05/05 05:56:40;;;;;;;5.80;3.20;;;;;;;;;;5028530;28;20046;-58
2022/05/05 05:59:06;;;;;;;8.93;3.33;;;;;;;;;;5020902;28;20107;-58
2022/05/05 06:04:17;;;;;;;8.68;3.25;;;;;;;;;;5021301;28;20049;-58
2022/05/05 06:06:43;;;;;;;11.90;4.45;;;;;;;;;;5028954;28;20053;-58
2022/05/05 06:09:11;;;;;;;10.52;3.00;;;;;;;;;;5044900;28;20046;-58
2022/05/05 06:11:38;;;;;;;9.07;3.88;;;;;;;;;;5038322;28;20058;-58
2022/05/05 06:14:05;;;;;;;9.18;4.05;;;;;;;;;;5027775;28;20056;-56
2022/05/05 06:16:31;;;;;;;7.70;2.60;;;;;;;;;;5016801;28;20057;-58
2022/05/05 06:18:58;;;;;;;13.00;3.20;;;;;;;;;;5041879;28;20100;-59
2022/05/05 06:21:27;;;;;;;9.73;3.28;;;;;;;;;;5032108;28;20073;-58
2022/05/05 06:23:54;;;;;;;11.35;3.47;;;;;;;;;;5029965;28;20118;-58
2022/05/05 06:26:23;;;;;;;10.35;4.20;;;;;;;;;;5023970;28;20049;-58
2022/05/05 06:28:50;;;;;;;12.85;4.72;;;;;;;;;;5046887;28;20085;-58
2022/05/05 06:31:17;;;;;;;7.30;2.60;;;;;;;;;;5021769;28;20053;-58
2022/05/05 06:33:44;;;;;;;8.65;2.92;;;;;;;;;;5028084;28;20065;-55
2022/05/05 06:36:11;;;;;;;11.35;4.57;;;;;;;;;;5020848;28;20075;-63
2022/05/05 06:38:38;;;;;;;12.85;5.05;;;;;;;;;;5027469;28;20136;-58
2022/05/05 06:41:05;;;;;;;7.35;2.78;;;;;;;;;;5016655;28;20060;-58
2022/05/05 06:43:34;;;;;;;8.77;3.25;;;;;;;;;;5027530;28;20098;-59
2022/05/05 06:46:01;;;;;;;12.52;3.60;;;;;;;;;;5035564;28;20056;-59
2022/05/05 06:48:29;;;;;;;14.20;5.18;;;;;;;;;;5024756;28;20050;-58
2022/05/05 06:50:59;;;;;;;17.83;5.40;;;;;;;;;;5006935;28;20050;-57
2022/05/05 06:53:26;;;;;;;14.05;5.45;;;;;;;;;;5035496;28;20041;-59
2022/05/05 06:55:56;;;;;;;11.98;5.40;;;;;;;;;;5043617;28;20260;-56
2022/05/05 06:58:24;;;;;;;11.20;4.22;;;;;;;;;;5036647;28;20053;-58
2022/05/05 07:03:39;;;;;;;8.55;3.45;;;;;;;;;;5000553;28;20054;-59
2022/05/05 07:06:10;;;;;;;13.00;4.05;;;;;;;;;;5035823;28;20057;-58
2022/05/05 07:11:17;;;;;;;19.55;5.40;;;;;;;;;;5036094;28;20060;-59
2022/05/05 07:13:45;;;;;;;14.25;4.95;;;;;;;;;;5022067;28;20057;-60
2022/05/05 07:16:13;;;;;;;8.55;3.70;;;;;;;;;;5016038;28;20088;-59
2022/05/05 07:18:39;;;;;;;11.27;4.63;;;;;;;;;;5032008;28;20117;-59
2022/05/05 07:21:07;;;;;;;16.23;5.68;;;;;;;;;;5035039;28;20050;-59
2022/05/05 07:23:33;;;;;;;16.27;6.60;;;;;;;;;;5019103;28;20076;-59
2022/05/05 07:26:01;;;;;;;17.58;6.45;;;;;;;;;;5044452;28;20064;-60
2022/05/05 07:28:27;;;;;;;19.35;6.35;;;;;;;;;;5026584;28;20049;-60
2022/05/05 07:30:55;;;;;;;13.65;4.78;;;;;;;;;;5038482;28;20049;-60
2022/05/05 07:33:24;;;;;;;19.92;5.93;;;;;;;;;;5039078;28;20089;-60
2022/05/05 07:35:51;;;;;;;13.85;4.65;;;;;;;;;;5044135;28;20042;-60
2022/05/05 07:38:18;;;;;;;20.67;6.07;;;;;;;;;;5038230;28;20049;-59
2022/05/05 07:40:46;;;;;;;14.43;5.60;;;;;;;;;;5043832;28;20137;-58
2022/05/05 07:43:13;;;;;;;16.02;5.38;;;;;;;;;;5037868;28;20057;-59
2022/05/05 07:45:41;;;;;;;10.10;4.23;;;;;;;;;;5060846;28;20049;-59
2022/05/05 07:48:08;;;;;;;13.02;4.32;;;;;;;;;;5043596;28;20057;-59
2022/05/05 07:50:39;;;;;;;7.85;3.70;;;;;;;;;;5025465;28;20050;-59
2022/05/05 07:53:05;;;;;;;8.15;3.25;;;;;;;;;;5040801;28;20050;-60
2022/05/05 07:55:32;;;;;;;8.02;3.60;;;;;;;;;;5032565;28;20062;-58
2022/05/05 07:57:59;;;;;;;18.15;5.57;;;;;;;;;;5029861;28;20107;-59
2022/05/05 08:00:26;;;;;;;9.55;3.83;;;;;;;;;;5036192;28;20056;-58
2022/05/05 08:02:55;;;;;;;18.35;5.45;;;;;;;;;;5026012;28;20129;-59
2022/05/05 08:05:22;;;;;;;18.30;5.43;;;;;;;;;;5022882;28;20131;-59
2022/05/05 08:07:51;;;;;;;6.88;2.83;;;;;;;;;;5047585;28;20057;-58
2022/05/05 08:10:19;;;;;;;11.10;3.95;;;;;;;;;;5040773;28;20045;-59
2022/05/05 08:12:46;;;;;;;6.30;3.35;;;;;;;;;;5029794;28;20057;-58
2022/05/05 08:15:13;;;;;;;18.95;5.85;;;;;;;;;;5023771;28;20076;-60
2022/05/05 08:17:40;;;;;;;8.40;3.70;;;;;;;;;;5020862;28;20057;-60
2022/05/05 08:20:08;;;;;;;17.45;5.72;;;;;;;;;;5034201;28;20080;-58
2022/05/05 08:22:34;;;;;;;16.30;6.47;;;;;;;;;;5028061;28;20069;-58
2022/05/05 08:30:32;;;;;;;16.45;5.82;;;;;;;;;;5028927;28;20045;-58
2022/05/05 08:32:58;;;;;;;16.30;6.38;;;;;;;;;;5029766;28;20092;-58
2022/05/05 08:35:27;;;;;;;15.20;6.47;;;;;;;;;;5040318;28;20061;-58
2022/05/05 08:37:53;;;;;;;;;;;;;;;;;;5028000;28;20057;-59
2022/05/05 08:40:24;;;;;;;17.33;5.90;;;;;;;;;;5040781;28;19929;-58
2022/05/05 08:42:51;;;;;;;20.83;6.60;;;;;;;;;;5045198;28;20056;-59
2022/05/05 08:45:17;;;;;;;14.13;5.80;;;;;;;;;;5028400;28;20049;-59
2022/05/05 08:47:46;;;;;;;10.82;4.35;;;;;;;;;;5038680;28;20045;-58
2022/05/05 08:50:13;;;;;;;13.88;5.72;;;;;;;;;;5044943;28;20042;-58
2022/05/05 08:52:41;;;;;;;19.10;6.13;;;;;;;;;;5039336;28;20053;-58
2022/05/05 08:55:08;;;;;;;19.63;6.80;;;;;;;;;;5045973;28;20049;-58
2022/05/05 08:57:37;;;;;;;25.23;6.43;;;;;;;;;;5039967;28;20050;-59
2022/05/05 09:00:05;;;;;;;11.57;4.70;;;;;;;;;;5045727;28;20077;-59
2022/05/05 09:02:32;;;;;;;18.75;5.60;;;;;;;;;;5040337;28;20119;-58
2022/05/05 09:04:59;;;;;;;13.50;4.85;;;;;;;;;;5029865;28;20049;-58
2022/05/05 09:07:45;;;;;;;20.52;6.32;;;;;;;;;;5020630;28;20062;-58
2022/05/05 09:10:12;;;;;;;10.10;4.13;;;;;;;;;;5028657;28;20076;-58
2022/05/05 09:12:40;;;;;;;12.05;4.40;;;;;;;;;;5017684;28;20058;-58
2022/05/05 09:15:09;;;;;;;18.48;5.50;;;;;;;;;;5045920;28;20069;-59
2022/05/05 09:17:36;;;;;;;15.00;5.47;;;;;;;;;;5030666;28;20104;-58
2022/05/05 09:20:04;;;;;;;18.40;7.50;;;;;;;;;;5025860;28;20045;-61
2022/05/05 09:22:31;;;;;;;16.23;6.40;;;;;;;;;;5026402;28;20132;-58
2022/05/05 09:24:58;;;;;;;25.05;8.43;;;;;;;;;;5013747;28;20041;-59
2022/05/05 09:27:25;;;;;;;31.88;12.25;;;;;;;;;;5036696;28;20179;-59
2022/05/05 09:30:08;;;;;;;20.85;8.25;;;;;;;;;;5030678;28;20064;-60
2022/05/05 09:32:36;;;;;;;13.98;5.80;;;;;;;;;;5040628;28;20049;-58
2022/05/05 09:35:03;;;;;;;26.15;7.32;;;;;;;;;;5029689;28;20053;-60
2022/05/05 09:37:31;;;;;;;20.85;7.78;;;;;;;;;;5022391;28;20053;-59
2022/05/05 09:39:59;;;;;;;18.38;7.75;;;;;;;;;;5038691;28;20050;-60
2022/05/05 09:42:36;;;;;;;19.00;7.90;;;;;;;;;;5046008;28;20041;-59
2022/05/05 09:45:26;;;;;;;23.45;8.00;;;;;;;;;;5039358;28;20050;-58
2022/05/05 09:47:58;;;;;;;22.02;8.45;;;;;;;;;;5013405;28;20060;-59
2022/05/05 09:50:28;;;;;;;21.33;8.35;;;;;;;;;;5038176;28;20077;-60
2022/05/05 09:58:35;;;;;;;18.30;6.72;;;;;;;;;;5022516;28;20059;-58
2022/05/05 10:01:06;;;;;;;15.20;6.53;;;;;;;;;;5054945;28;20140;-60
2022/05/05 10:06:23;;;;;;;14.15;6.07;;;;;;;;;;5039401;28;20058;-58
2022/05/05 10:08:53;;;;;;;22.25;8.63;;;;;;;;;;5038904;28;20053;-59
2022/05/05 10:11:19;;;;;;;25.40;8.68;;;;;;;;;;5025928;28;20045;-59
2022/05/05 10:13:47;;;;;;;22.75;8.70;;;;;;;;;;5043050;28;20115;-58
2022/05/05 10:16:15;;;;;;;15.57;6.45;;;;;;;;;;5038558;28;20041;-60
2022/05/05 10:18:44;;;;;;;22.20;8.52;;;;;;;;;;5044405;28;20056;-60
2022/05/05 10:21:14;;;;;;;18.77;7.20;;;;;;;;;;5031747;28;20107;-58
2022/05/05 10:23:46;;;;;;;19.30;7.85;;;;;;;;;;5044003;28;20046;-59
2022/05/05 10:26:12;;;;;;;21.83;9.00;;;;;;;;;;5024993;28;20061;-59
2022/05/05 10:28:44;;;;;;;18.70;7.38;;;;;;;;;;5044667;28;20057;-59
2022/05/05 10:31:12;;;;;;;14.50;6.60;;;;;;;;;;5035076;28;20053;-58
2022/05/05 10:33:57;;;;;;;19.17;7.25;;;;;;;;;;5013261;28;20057;-56
2022/05/05 10:36:25;;;;;;;19.33;8.95;;;;;;;;;;5020797;28;20046;-59
2022/05/05 10:38:52;;;;;;;34.40;13.63;;;;;;;;;;5043631;28;20049;-58
2022/05/05 10:41:36;;;;;;;19.65;8.63;;;;;;;;;;5009026;28;20061;-59
2022/05/05 10:44:21;;;;;;;20.20;9.15;;;;;;;;;;5046239;28;20061;-58
2022/05/05 10:47:02;;;;;;;29.25;8.82;;;;;;;;;;5022201;28;20057;-58
2022/05/05 10:49:47;;;;;;;21.30;8.65;;;;;;;;;;5011724;28;20139;-59
2022/05/05 10:52:29;;;;;;;19.17;8.48;;;;;;;;;;5030576;28;20082;-59
2022/05/05 10:54:56;;;;;;;18.77;8.35;;;;;;;;;;5025976;28;20081;-60
2022/05/05 10:57:42;;;;;;;19.13;7.68;;;;;;;;;;5025514;28;20057;-58
2022/05/05 11:00:09;;;;;;;26.17;10.40;;;;;;;;;;5044294;28;20057;-60
2022/05/05 11:02:36;;;;;;;18.73;7.13;;;;;;;;;;5033010;28;20061;-58
2022/05/05 11:05:21;;;;;;;23.27;9.15;;;;;;;;;;5045690;28;20077;-59
2022/05/05 11:07:50;;;;;;;22.00;9.07;;;;;;;;;;5039492;28;20053;-59
2022/05/05 11:10:48;;;;;;;19.08;8.77;;;;;;;;;;5043873;28;20055;-59
2022/05/05 11:13:33;;;;;;;26.17;10.48;;;;;;;;;;4942112;28;20058;-60
2022/05/05 11:21:55;;;;;;;19.98;8.43;;;;;;;;;;5020603;28;20057;-60
2022/05/05 11:24:28;;;;;;;21.40;8.73;;;;;;;;;;5026206;28;20049;-59
2022/05/05 11:26:54;;;;;;;11.90;5.70;;;;;;;;;;5035340;28;20058;-60
2022/05/05 11:29:21;;;;;;;13.15;6.50;;;;;;;;;;5035791;28;20125;-59
2022/05/05 11:31:56;;;;;;;21.30;9.77;;;;;;;;;;5037282;28;20069;-59
2022/05/05 11:34:23;;;;;;;26.50;11.07;;;;;;;;;;5007936;28;20101;-60
2022/05/05 11:36:51;;;;;;;23.02;9.77;;;;;;;;;;5043053;28;20061;-59
2022/05/05 11:39:21;;;;;;;23.20;10.25;;;;;;;;;;5026817;28;20065;-60
2022/05/05 11:41:57;;;;;;;22.23;8.13;;;;;;;;;;5024551;28;20064;-59
2022/05/05 11:44:25;;;;;;;21.15;9.13;;;;;;;;;;5027026;28;20080;-60
2022/05/05 11:46:53;;;;;;;25.02;11.30;;;;;;;;;;5026329;28;20061;-60
2022/05/05 11:49:20;;;;;;;21.08;8.52;;;;;;;;;;5013267;28;20064;-59
2022/05/05 11:51:47;;;;;;;24.42;11.20;;;;;;;;;;5010184;28;20062;-59
2022/05/05 11:54:15;;;;;;;20.98;8.90;;;;;;;;;;5003897;28;20041;-59
2022/05/05 11:56:44;;;;;;;24.35;9.80;;;;;;;;;;5027366;28;20053;-59
2022/05/05 12:02:00;;;;;;;27.38;10.25;;;;;;;;;;5037220;28;20045;-59
2022/05/05 12:04:28;;;;;;;19.50;10.68;;;;;;;;;;5018414;28;20057;-59
2022/05/05 12:06:55;;;;;;;25.37;12.63;;;;;;;;;;5030347;28;20084;-59
2022/05/05 12:09:22;;;;;;;17.08;8.13;;;;;;;;;;5022850;28;20056;-59
2022/05/05 12:11:48;;;;;;;19.15;7.68;;;;;;;;;;5029328;28;20131;-59
2022/05/05 12:14:20;;;;;;;20.98;9.40;;;;;;;;;;5039662;28;20057;-59
2022/05/05 12:16:47;;;;;;;20.17;9.90;;;;;;;;;;5046940;28;20061;-59
2022/05/05 12:19:17;;;;;;;22.90;10.10;;;;;;;;;;5023846;28;20060;-60
2022/05/05 12:21:54;;;;;;;13.45;6.50;;;;;;;;;;5029284;28;20137;-59
2022/05/05 12:24:23;;;;;;;16.55;8.48;;;;;;;;;;5037347;28;20061;-60
2022/05/05 12:26:50;;;;;;;19.98;9.65;;;;;;;;;;5045399;28;20042;-60
2022/05/05 12:29:20;;;;;;;17.70;7.05;;;;;;;;;;5004152;28;20116;-59
2022/05/05 12:31:56;;;;;;;20.00;8.82;;;;;;;;;;5026841;28;20041;-59
2022/05/05 12:34:25;;;;;;;19.42;8.63;;;;;;;;;;5010451;28;20116;-59
2022/05/05 12:37:09;;;;;;;20.45;9.88;;;;;;;;;;5025558;28;20060;-59
2022/05/05 12:39:48;;;;;;;19.52;9.70;;;;;;;;;;4983994;28;20082;-59
2022/05/05 12:42:16;;;;;;;18.70;8.57;;;;;;;;;;5020870;28;20049;-59
2022/05/05 12:44:46;;;;;;;11.93;5.83;;;;;;;;;;5032297;28;20132;-60
2022/05/05 12:47:13;;;;;;;14.80;5.95;;;;;;;;;;5046840;28;20053;-60
2022/05/05 12:49:40;;;;;;;18.48;8.77;;;;;;;;;;5047440;28;20045;-59
2022/05/05 12:59:36;;;;;;;23.57;8.53;;;;;;;;;;5032631;28;20096;-60
2022/05/05 13:00:28;;;;;;;17.05;7.53;;;;;;;;;;5042582;28;20141;-59
2022/05/05 13:02:55;;;;;;;19.33;7.57;;;;;;;;;;5025512;28;20103;-59
2022/05/05 13:05:22;;;;;;;14.45;7.13;;;;;;;;;;5042095;28;20069;-60
2022/05/05 13:07:49;;;;;;;18.38;7.95;;;;;;;;;;5040430;28;20076;-60
2022/05/05 13:10:17;;;;;;;14.73;6.60;;;;;;;;;;5028215;28;20053;-60
2022/05/05 13:12:44;;;;;;;21.38;8.40;;;;;;;;;;5020623;28;20144;-60
2022/05/05 13:15:10;;;;;;;13.85;6.70;;;;;;;;;;5029187;28;20053;-60
2022/05/05 13:17:38;;;;;;;20.75;9.07;;;;;;;;;;5030258;28;20049;-61
2022/05/05 13:20:08;;;;;;;16.90;7.78;;;;;;;;;;5043036;28;20050;-59
2022/05/05 13:22:35;;;;;;;15.13;6.22;;;;;;;;;;5039594;28;20074;-59
2022/05/05 13:25:02;;;;;;;16.40;6.65;;;;;;;;;;5028312;28;20062;-61
2022/05/05 13:27:28;;;;;;;10.75;5.22;;;;;;;;;;5015439;28;20046;-60
2022/05/05 13:29:55;;;;;;;18.60;8.50;;;;;;;;;;5009133;28;20054;-59
2022/05/05 13:32:21;;;;;;;11.88;5.82;;;;;;;;;;5019209;28;20066;-60
2022/05/05 13:34:52;;;;;;;13.18;6.70;;;;;;;;;;5028801;28;20088;-59
2022/05/05 13:37:20;;;;;;;17.65;8.27;;;;;;;;;;5039117;28;20055;-59
2022/05/05 13:39:47;;;;;;;11.73;6.22;;;;;;;;;;5028490;28;20135;-59
2022/05/05 13:42:15;;;;;;;18.10;8.25;;;;;;;;;;5023616;28;20077;-60
2022/05/05 13:44:41;;;;;;;20.42;7.65;;;;;;;;;;5046117;28;20081;-59
2022/05/05 13:47:08;;;;;;;14.77;6.40;;;;;;;;;;5029050;28;20057;-59
2022/05/05 13:49:35;;;;;;;16.40;7.10;;;;;;;;;;5022641;28;20057;-60
2022/05/05 13:52:04;;;;;;;16.33;7.63;;;;;;;;;;5033484;28;20037;-60
2022/05/05 13:54:30;;;;;;;13.85;5.50;;;;;;;;;;5054669;28;20073;-60
2022/05/05 13:56:57;;;;;;;10.65;4.72;;;;;;;;;;5037924;28;20060;-60
2022/05/05 13:59:24;;;;;;;10.68;5.22;;;;;;;;;;5019820;28;20053;-61
2022/05/05 14:01:51;;;;;;;14.55;4.88;;;;;;;;;;5045019;28;20049;-60
2022/05/05 14:04:17;;;;;;;19.80;8.80;;;;;;;;;;5016821;28;20045;-59
2022/05/05 14:06:44;;;;;;;19.63;8.35;;;;;;;;;;5027029;28;20077;-59
2022/05/05 14:12:15;;;;;;;14.15;5.38;;;;;;;;;;5004963;28;20054;-59
2022/05/05 14:14:45;;;;;;;12.68;5.63;;;;;;;;;;5012771;28;20085;-60
2022/05/05 14:17:12;;;;;;;21.38;8.38;;;;;;;;;;5040777;28;20079;-60
2022/05/05 14:19:40;;;;;;;17.73;7.75;;;;;;;;;;5040899;28;20057;-60
2022/05/05 14:22:07;;;;;;;10.80;5.88;;;;;;;;;;5030963;28;20049;-58
2022/05/05 14:24:35;;;;;;;15.88;7.43;;;;;;;;;;5023248;28;20089;-60
2022/05/05 14:27:01;;;;;;;;;;;;;;;;;;5045851;28;20053;-59
2022/05/05 14:29:28;;;;;;;13.00;5.38;;;;;;;;;;5037342;28;19924;-60
2022/05/05 14:31:56;;;;;;;22.95;9.45;;;;;;;;;;5026723;28;20115;-60
2022/05/05 14:34:23;;;;;;;14.80;6.43;;;;;;;;;;5018168;28;20068;-61
2022/05/05 14:36:50;;;;;;;13.68;6.70;;;;;;;;;;5022389;28;20061;-59
2022/05/05 14:39:17;;;;;;;14.48;5.60;;;;;;;;;;5025434;28;20082;-60
2022/05/05 14:41:45;;;;;;;17.98;8.35;;;;;;;;;;5038652;28;20058;-59
2022/05/05 14:44:12;;;;;;;;;;;;;;;;;;5021701;28;20073;-59
2022/05/05 14:46:40;;;;;;;14.48;5.78;;;;;;;;;;4999944;28;20012;-59
2022/05/05 14:49:07;;;;;;;12.23;5.50;;;;;;;;;;5038724;28;20144;-60
2022/05/05 14:51:34;;;;;;;21.05;9.30;;;;;;;;;;5006358;28;20100;-60
2022/05/05 14:54:00;;;;;;;17.17;7.93;;;;;;;;;;5024155;28;20057;-59
2022/05/05 14:56:27;;;;;;;16.42;7.45;;;;;;;;;;5031640;28;20049;-59
2022/05/05 14:58:55;;;;;;;12.43;4.82;;;;;;;;;;5026846;28;20077;-61
2022/05/05 15:01:22;;;;;;;18.33;8.95;;;;;;;;;;5023886;28;20065;-60
2022/05/05 15:03:49;;;;;;;15.50;7.68;;;;;;;;;;5016221;28;20049;-61
2022/05/05 15:06:16;;;;;;;11.90;6.32;;;;;;;;;;5037937;28;20041;-60
2022/05/05 15:08:43;;;;;;;11.35;5.55;;;;;;;;;;5027932;28;20065;-60
2022/05/05 15:11:10;;;;;;;12.05;5.90;;;;;;;;;;5016476;28;20460;-60
2022/05/05 15:13:37;;;;;;;16.85;7.88;;;;;;;;;;5032444;28;20068;-60
2022/05/05 15:16:05;;;;;;;14.18;6.38;;;;;;;;;;5035935;28;20044;-60
2022/05/05 15:18:31;;;;;;;16.30;7.18;;;;;;;;;;5040773;28;20053;-60
2022/05/05 15:20:59;;;;;;;18.77;7.78;;;;;;;;;;5022207;28;20077;-61
2022/05/05 15:23:26;;;;;;;13.48;6.38;;;;;;;;;;5026959;28;20057;-62
2022/05/05 15:25:52;;;;;;;14.20;6.45;;;;;;;;;;5042526;28;20061;-60
2022/05/05 15:28:19;;;;;;;13.05;6.28;;;;;;;;;;5016922;28;20060;-62